sensor_id;sensor_type;location;lat;lon;timestamp;pressure;altitude;pressure_sealevel;temperature;humidity
3444;BME280;1736;52.068;6.968;2023-04-25T00:02:15;100376.22;;;6.60;100.00
3444;BME280;1736;52.068;6.968;2023-04-25T00:04:41;100376.34;;;6.58;100.00
3444;BME280;1736;52.068;6.968;2023-04-25T00:07:08;100383.00;;;6.51;100.00
3444;BME280;1736;52.068;6.968;2023-04-25T00:09:35;100375.28;;;6.61;100.00
3444;BME280;1736;52.068;6.968;2023-04-25T00:12:02;100380.16;;;6.54;100.00
3444;BME280;1736;52.068;6.968;2023-04-25T00:14:29;100387.53;;;6.49;100.00
3444;BME280;1736;52.068;6.968;2023-04-25T00:16:57;100383.59;;;6.55;100.00
3444;BME280;1736;52.068;6.968;2023-04-25T00:19:24;100381.41;;;6.49;100.00
3444;BME280;1736;52.068;6.968;2023-04-25T00:21:52;100386.09;;;6.45;100.00
3444;BME280;1736;52.068;6.968;2023-04-25T00:24:19;100385.84;;;6.48;100.00
3444;BME280;1736;52.068;6.968;2023-04-25T00:26:45;100397.22;;;6.49;100.00
3444;BME280;1736;52.068;6.968;2023-04-25T00:29:12;100400.19;;;6.44;100.00
3444;BME280;1736;52.068;6.968;2023-04-25T00:31:39;100392.81;;;6.49;100.00
3444;BME280;1736;52.068;6.968;2023-04-25T00:34:07;100401.66;;;6.48;100.00
3444;BME280;1736;52.068;6.968;2023-04-25T00:36:34;100397.56;;;6.44;100.00
3444;BME280;1736;52.068;6.968;2023-04-25T00:39:01;100400.59;;;6.51;100.00
3444;BME280;1736;52.068;6.968;2023-04-25T00:41:28;100399.75;;;6.50;100.00
3444;BME280;1736;52.068;6.968;2023-04-25T00:43:55;100405.25;;;6.47;100.00
3444;BME280;1736;52.068;6.968;2023-04-25T00:46:23;100404.19;;;6.50;100.00
3444;BME280;1736;52.068;6.968;2023-04-25T00:48:49;100411.38;;;6.48;100.00
3444;BME280;1736;52.068;6.968;2023-04-25T00:51:20;100411.28;;;6.49;100.00
3444;BME280;1736;52.068;6.968;2023-04-25T00:53:47;100409.47;;;6.50;100.00
3444;BME280;1736;52.068;6.968;2023-04-25T00:56:15;100411.78;;;6.42;100.00
3444;BME280;1736;52.068;6.968;2023-04-25T00:58:42;100412.25;;;6.36;100.00
3444;BME280;1736;52.068;6.968;2023-04-25T01:01:08;100406.13;;;6.35;100.00
3444;BME280;1736;52.068;6.968;2023-04-25T01:03:38;100414.53;;;6.40;100.00
3444;BME280;1736;52.068;6.968;2023-04-25T01:06:07;100418.34;;;6.36;100.00
3444;BME280;1736;52.068;6.968;2023-04-25T01:08:37;100411.72;;;6.31;100.00
3444;BME280;1736;52.068;6.968;2023-04-25T01:11:04;100423.59;;;6.36;100.00
3444;BME280;1736;52.068;6.968;2023-04-25T01:13:31;100419.94;;;6.39;100.00
3444;BME280;1736;52.068;6.968;2023-04-25T01:15:57;100420.66;;;6.28;100.00
3444;BME280;1736;52.068;6.968;2023-04-25T01:18:24;100418.47;;;6.35;100.00
3444;BME280;1736;52.068;6.968;2023-04-25T01:20:51;100420.66;;;6.28;100.00
3444;BME280;1736;52.068;6.968;2023-04-25T01:23:20;100425.94;;;6.28;100.00
3444;BME280;1736;52.068;6.968;2023-04-25T01:25:48;100422.56;;;6.26;100.00
3444;BME280;1736;52.068;6.968;2023-04-25T01:28:15;100421.81;;;6.24;100.00
3444;BME280;1736;52.068;6.968;2023-04-25T01:30:42;100423.09;;;6.31;100.00
3444;BME280;1736;52.068;6.968;2023-04-25T01:33:10;100421.31;;;6.32;100.00
3444;BME280;1736;52.068;6.968;2023-04-25T01:35:37;100421.94;;;6.35;100.00
3444;BME280;1736;52.068;6.968;2023-04-25T01:38:04;100415.84;;;6.35;100.00
3444;BME280;1736;52.068;6.968;2023-04-25T01:40:33;100409.41;;;6.26;100.00
3444;BME280;1736;52.068;6.968;2023-04-25T01:43:00;100412.25;;;6.23;100.00
3444;BME280;1736;52.068;6.968;2023-04-25T01:45:26;100411.28;;;6.24;100.00
3444;BME280;1736;52.068;6.968;2023-04-25T01:47:53;100424.69;;;6.21;100.00
3444;BME280;1736;52.068;6.968;2023-04-25T01:50:20;100432.81;;;6.18;100.00
3444;BME280;1736;52.068;6.968;2023-04-25T01:52:46;100429.22;;;6.19;100.00
3444;BME280;1736;52.068;6.968;2023-04-25T01:55:13;100425.09;;;6.15;100.00
3444;BME280;1736;52.068;6.968;2023-04-25T01:57:41;100428.25;;;6.20;100.00
3444;BME280;1736;52.068;6.968;2023-04-25T02:00:08;100438.19;;;6.17;100.00
3444;BME280;1736;52.068;6.968;2023-04-25T02:02:35;100437.97;;;6.20;100.00
3444;BME280;1736;52.068;6.968;2023-04-25T02:05:02;100438.94;;;6.19;100.00
3444;BME280;1736;52.068;6.968;2023-04-25T02:07:28;100449.78;;;6.14;100.00
3444;BME280;1736;52.068;6.968;2023-04-25T02:09:55;100453.38;;;6.13;100.00
3444;BME280;1736;52.068;6.968;2023-04-25T02:12:21;100453.13;;;6.16;100.00
3444;BME280;1736;52.068;6.968;2023-04-25T02:14:49;100458.31;;;6.05;100.00
3444;BME280;1736;52.068;6.968;2023-04-25T02:17:16;100458.84;;;6.10;100.00
3444;BME280;1736;52.068;6.968;2023-04-25T02:19:43;100461.25;;;6.01;100.00
3444;BME280;1736;52.068;6.968;2023-04-25T02:22:17;100458.97;;;5.96;100.00
3444;BME280;1736;52.068;6.968;2023-04-25T02:24:44;100462.63;;;5.94;100.00
3444;BME280;1736;52.068;6.968;2023-04-25T02:27:10;100459.69;;;5.98;100.00
3444;BME280;1736;52.068;6.968;2023-04-25T02:29:37;100473.59;;;6.00;100.00
3444;BME280;1736;52.068;6.968;2023-04-25T02:32:05;100470.00;;;6.01;100.00
3444;BME280;1736;52.068;6.968;2023-04-25T02:34:31;100475.47;;;5.98;100.00
3444;BME280;1736;52.068;6.968;2023-04-25T02:36:58;100476.97;;;6.02;100.00
3444;BME280;1736;52.068;6.968;2023-04-25T02:39:24;100481.16;;;6.05;100.00
3444;BME280;1736;52.068;6.968;2023-04-25T02:41:52;100479.78;;;5.99;100.00
3444;BME280;1736;52.068;6.968;2023-04-25T02:44:19;100482.44;;;5.99;100.00
3444;BME280;1736;52.068;6.968;2023-04-25T02:46:45;100483.91;;;6.03;100.00
3444;BME280;1736;52.068;6.968;2023-04-25T02:49:13;100481.06;;;6.06;100.00
3444;BME280;1736;52.068;6.968;2023-04-25T02:51:40;100488.75;;;5.97;100.00
3444;BME280;1736;52.068;6.968;2023-04-25T02:54:06;100486.66;;;5.89;100.00
3444;BME280;1736;52.068;6.968;2023-04-25T02:56:33;100489.81;;;5.94;100.00
3444;BME280;1736;52.068;6.968;2023-04-25T02:58:59;100490.75;;;5.93;100.00
3444;BME280;1736;52.068;6.968;2023-04-25T03:01:26;100486.53;;;5.91;100.00
3444;BME280;1736;52.068;6.968;2023-04-25T03:03:52;100486.00;;;5.98;100.00
3444;BME280;1736;52.068;6.968;2023-04-25T03:06:20;100495.28;;;5.91;100.00
3444;BME280;1736;52.068;6.968;2023-04-25T03:08:47;100490.63;;;5.82;100.00
3444;BME280;1736;52.068;6.968;2023-04-25T03:11:13;100488.53;;;5.87;100.00
3444;BME280;1736;52.068;6.968;2023-04-25T03:13:40;100488.09;;;5.81;100.00
3444;BME280;1736;52.068;6.968;2023-04-25T03:16:06;100493.66;;;5.76;100.00
3444;BME280;1736;52.068;6.968;2023-04-25T03:18:33;100503.03;;;5.80;100.00
3444;BME280;1736;52.068;6.968;2023-04-25T03:20:59;100508.31;;;5.80;100.00
3444;BME280;1736;52.068;6.968;2023-04-25T03:23:27;100509.75;;;5.72;100.00
3444;BME280;1736;52.068;6.968;2023-04-25T03:25:54;100502.38;;;5.77;100.00
3444;BME280;1736;52.068;6.968;2023-04-25T03:28:20;100507.63;;;5.77;100.00
3444;BME280;1736;52.068;6.968;2023-04-25T03:30:47;100508.88;;;5.71;100.00
3444;BME280;1736;52.068;6.968;2023-04-25T03:33:13;100507.63;;;5.77;100.00
3444;BME280;1736;52.068;6.968;2023-04-25T03:35:40;100511.19;;;5.63;100.00
3444;BME280;1736;52.068;6.968;2023-04-25T03:38:07;100509.22;;;5.67;100.00
3444;BME280;1736;52.068;6.968;2023-04-25T03:40:35;100513.75;;;5.77;100.00
3444;BME280;1736;52.068;6.968;2023-04-25T03:43:02;100510.78;;;5.69;100.00
3444;BME280;1736;52.068;6.968;2023-04-25T03:45:28;100515.88;;;5.72;100.00
3444;BME280;1736;52.068;6.968;2023-04-25T03:47:55;100517.00;;;5.68;100.00
3444;BME280;1736;52.068;6.968;2023-04-25T03:50:21;100520.28;;;5.72;100.00
3444;BME280;1736;52.068;6.968;2023-04-25T03:52:48;100516.56;;;5.62;100.00
3444;BME280;1736;52.068;6.968;2023-04-25T03:55:15;100530.19;;;5.68;100.00
3444;BME280;1736;52.068;6.968;2023-04-25T03:57:43;100537.13;;;5.69;100.00
3444;BME280;1736;52.068;6.968;2023-04-25T04:00:10;100517.72;;;5.57;100.00
3444;BME280;1736;52.068;6.968;2023-04-25T04:02:37;100521.72;;;5.63;100.00
3444;BME280;1736;52.068;6.968;2023-04-25T04:05:04;100526.06;;;5.64;100.00
3444;BME280;1736;52.068;6.968;2023-04-25T04:07:31;100524.31;;;5.50;100.00
3444;BME280;1736;52.068;6.968;2023-04-25T04:09:59;100522.50;;;5.51;100.00
3444;BME280;1736;52.068;6.968;2023-04-25T04:12:25;100525.38;;;5.48;100.00
3444;BME280;1736;52.068;6.968;2023-04-25T04:14:53;100523.53;;;5.36;100.00
3444;BME280;1736;52.068;6.968;2023-04-25T04:17:20;100533.03;;;5.24;100.00
3444;BME280;1736;52.068;6.968;2023-04-25T04:19:46;100540.84;;;5.26;100.00
3444;BME280;1736;52.068;6.968;2023-04-25T04:22:13;100535.91;;;5.21;100.00
3444;BME280;1736;52.068;6.968;2023-04-25T04:24:39;100546.50;;;5.20;100.00
3444;BME280;1736;52.068;6.968;2023-04-25T04:27:09;100551.00;;;5.18;100.00
3444;BME280;1736;52.068;6.968;2023-04-25T04:29:35;100543.78;;;5.21;100.00
3444;BME280;1736;52.068;6.968;2023-04-25T04:32:03;100546.78;;;5.15;100.00
3444;BME280;1736;52.068;6.968;2023-04-25T04:34:30;100537.13;;;5.16;100.00
3444;BME280;1736;52.068;6.968;2023-04-25T04:36:57;100557.97;;;5.19;100.00
3444;BME280;1736;52.068;6.968;2023-04-25T04:39:23;100559.84;;;5.17;100.00
3444;BME280;1736;52.068;6.968;2023-04-25T04:41:50;100558.25;;;5.14;100.00
3444;BME280;1736;52.068;6.968;2023-04-25T04:44:16;100567.75;;;5.17;100.00
3444;BME280;1736;52.068;6.968;2023-04-25T04:46:43;100565.50;;;5.11;100.00
3444;BME280;1736;52.068;6.968;2023-04-25T04:49:11;100567.00;;;5.15;100.00
3444;BME280;1736;52.068;6.968;2023-04-25T04:51:39;100565.97;;;5.17;100.00
3444;BME280;1736;52.068;6.968;2023-04-25T04:54:05;100573.75;;;5.19;100.00
3444;BME280;1736;52.068;6.968;2023-04-25T04:56:32;100581.06;;;5.28;100.00
3444;BME280;1736;52.068;6.968;2023-04-25T04:58:59;100589.53;;;5.19;100.00
3444;BME280;1736;52.068;6.968;2023-04-25T05:01:27;100581.78;;;5.30;100.00
3444;BME280;1736;52.068;6.968;2023-04-25T05:03:54;100579.84;;;5.33;100.00
3444;BME280;1736;52.068;6.968;2023-04-25T05:06:27;100582.06;;;5.39;100.00
3444;BME280;1736;52.068;6.968;2023-04-25T05:08:54;100593.25;;;5.43;100.00
3444;BME280;1736;52.068;6.968;2023-04-25T05:11:20;100584.94;;;5.49;100.00
3444;BME280;1736;52.068;6.968;2023-04-25T05:13:47;100593.19;;;5.57;100.00
3444;BME280;1736;52.068;6.968;2023-04-25T05:16:14;100591.88;;;5.64;100.00
3444;BME280;1736;52.068;6.968;2023-04-25T05:18:40;100590.63;;;5.70;100.00
3444;BME280;1736;52.068;6.968;2023-04-25T05:21:07;100597.47;;;5.72;100.00
3444;BME280;1736;52.068;6.968;2023-04-25T05:23:35;100604.22;;;5.76;100.00
3444;BME280;1736;52.068;6.968;2023-04-25T05:26:01;100609.13;;;5.82;100.00
3444;BME280;1736;52.068;6.968;2023-04-25T05:28:28;100616.91;;;5.84;100.00
3444;BME280;1736;52.068;6.968;2023-04-25T05:30:54;100610.94;;;5.94;100.00
3444;BME280;1736;52.068;6.968;2023-04-25T05:33:21;100623.41;;;6.05;100.00
3444;BME280;1736;52.068;6.968;2023-04-25T05:35:47;100616.69;;;6.13;100.00
3444;BME280;1736;52.068;6.968;2023-04-25T05:38:20;100623.34;;;6.19;100.00
3444;BME280;1736;52.068;6.968;2023-04-25T05:40:48;100630.22;;;6.21;98.28
3444;BME280;1736;52.068;6.968;2023-04-25T05:43:14;100631.56;;;6.14;98.06
3444;BME280;1736;52.068;6.968;2023-04-25T05:45:41;100630.69;;;6.14;98.96
3444;BME280;1736;52.068;6.968;2023-04-25T05:48:07;100630.44;;;6.31;96.95
3444;BME280;1736;52.068;6.968;2023-04-25T05:50:34;100636.34;;;6.34;96.38
3444;BME280;1736;52.068;6.968;2023-04-25T05:53:00;100629.97;;;6.24;96.53
3444;BME280;1736;52.068;6.968;2023-04-25T05:55:27;100640.38;;;6.40;97.33
3444;BME280;1736;52.068;6.968;2023-04-25T05:57:55;100641.41;;;6.37;95.17
3444;BME280;1736;52.068;6.968;2023-04-25T06:00:22;100653.22;;;6.44;95.81
3444;BME280;1736;52.068;6.968;2023-04-25T06:02:49;100655.34;;;6.64;96.75
3444;BME280;1736;52.068;6.968;2023-04-25T06:05:15;100655.47;;;6.50;94.37
3444;BME280;1736;52.068;6.968;2023-04-25T06:07:42;100662.84;;;6.45;94.72
3444;BME280;1736;52.068;6.968;2023-04-25T06:10:09;100664.22;;;6.63;95.22
3444;BME280;1736;52.068;6.968;2023-04-25T06:12:35;100667.72;;;6.64;96.09
3444;BME280;1736;52.068;6.968;2023-04-25T06:15:06;100675.81;;;6.73;95.70
3444;BME280;1736;52.068;6.968;2023-04-25T06:17:32;100668.13;;;6.83;94.72
3444;BME280;1736;52.068;6.968;2023-04-25T06:20:00;100669.19;;;6.93;93.71
3444;BME280;1736;52.068;6.968;2023-04-25T06:22:27;100668.66;;;7.00;95.37
3444;BME280;1736;52.068;6.968;2023-04-25T06:24:53;100668.25;;;6.94;93.70
3444;BME280;1736;52.068;6.968;2023-04-25T06:27:22;100671.19;;;7.02;91.62
3444;BME280;1736;52.068;6.968;2023-04-25T06:29:48;100681.03;;;7.00;88.80
3444;BME280;1736;52.068;6.968;2023-04-25T06:32:16;100673.72;;;7.03;89.23
3444;BME280;1736;52.068;6.968;2023-04-25T06:34:43;100672.78;;;7.04;89.91
3444;BME280;1736;52.068;6.968;2023-04-25T06:37:10;100683.66;;;7.00;88.30
3444;BME280;1736;52.068;6.968;2023-04-25T06:39:37;100677.94;;;7.06;87.40
3444;BME280;1736;52.068;6.968;2023-04-25T06:42:03;100681.44;;;7.06;86.37
3444;BME280;1736;52.068;6.968;2023-04-25T06:44:30;100695.97;;;7.12;86.12
3444;BME280;1736;52.068;6.968;2023-04-25T06:46:56;100689.44;;;6.92;84.77
3444;BME280;1736;52.068;6.968;2023-04-25T06:49:24;100696.84;;;7.12;85.59
3444;BME280;1736;52.068;6.968;2023-04-25T06:51:51;100698.72;;;7.23;85.71
3444;BME280;1736;52.068;6.968;2023-04-25T06:54:17;100695.69;;;7.16;85.10
3444;BME280;1736;52.068;6.968;2023-04-25T06:56:44;100705.16;;;7.19;85.23
3444;BME280;1736;52.068;6.968;2023-04-25T06:59:10;100707.81;;;7.31;82.99
3444;BME280;1736;52.068;6.968;2023-04-25T07:01:37;100710.53;;;7.42;83.30
3444;BME280;1736;52.068;6.968;2023-04-25T07:04:03;100701.38;;;7.23;82.07
3444;BME280;1736;52.068;6.968;2023-04-25T07:06:31;100709.94;;;7.26;83.04
3444;BME280;1736;52.068;6.968;2023-04-25T07:08:58;100711.63;;;7.27;82.35
3444;BME280;1736;52.068;6.968;2023-04-25T07:11:24;100705.75;;;7.60;83.17
3444;BME280;1736;52.068;6.968;2023-04-25T07:13:51;100710.81;;;7.63;80.97
3444;BME280;1736;52.068;6.968;2023-04-25T07:16:17;100709.38;;;7.82;81.93
3444;BME280;1736;52.068;6.968;2023-04-25T07:18:44;100703.97;;;7.60;81.38
3444;BME280;1736;52.068;6.968;2023-04-25T07:21:10;100710.44;;;7.92;81.29
3444;BME280;1736;52.068;6.968;2023-04-25T07:23:38;100718.25;;;7.94;80.45
3444;BME280;1736;52.068;6.968;2023-04-25T07:26:06;100719.44;;;7.77;80.70
3444;BME280;1736;52.068;6.968;2023-04-25T07:28:32;100720.72;;;7.84;81.35
3444;BME280;1736;52.068;6.968;2023-04-25T07:30:59;100719.03;;;7.83;80.10
3444;BME280;1736;52.068;6.968;2023-04-25T07:33:25;100722.84;;;7.79;79.64
3444;BME280;1736;52.068;6.968;2023-04-25T07:35:52;100728.72;;;7.95;79.64
3444;BME280;1736;52.068;6.968;2023-04-25T07:38:18;100720.25;;;7.90;77.66
3444;BME280;1736;52.068;6.968;2023-04-25T07:40:47;100730.72;;;8.28;79.29
3444;BME280;1736;52.068;6.968;2023-04-25T07:43:20;100728.03;;;8.40;77.77
3444;BME280;1736;52.068;6.968;2023-04-25T07:45:46;100736.75;;;8.30;75.82
3444;BME280;1736;52.068;6.968;2023-04-25T07:48:16;100732.66;;;8.26;76.93
3444;BME280;1736;52.068;6.968;2023-04-25T07:50:43;100741.13;;;8.65;78.01
3444;BME280;1736;52.068;6.968;2023-04-25T07:53:10;100736.34;;;8.81;75.72
3444;BME280;1736;52.068;6.968;2023-04-25T07:55:37;100740.22;;;8.54;71.87
3444;BME280;1736;52.068;6.968;2023-04-25T07:58:06;100744.34;;;8.34;72.62
3444;BME280;1736;52.068;6.968;2023-04-25T08:00:33;100746.47;;;8.53;73.21
3444;BME280;1736;52.068;6.968;2023-04-25T08:03:00;100748.25;;;8.76;73.48
3444;BME280;1736;52.068;6.968;2023-04-25T08:05:26;100760.50;;;8.77;73.15
3444;BME280;1736;52.068;6.968;2023-04-25T08:07:52;100758.13;;;8.85;71.43
3444;BME280;1736;52.068;6.968;2023-04-25T08:10:19;100753.41;;;9.23;71.03
3444;BME280;1736;52.068;6.968;2023-04-25T08:12:47;100763.91;;;9.57;69.78
3444;BME280;1736;52.068;6.968;2023-04-25T08:15:15;100766.09;;;9.74;67.44
3444;BME280;1736;52.068;6.968;2023-04-25T08:17:42;100765.47;;;9.71;67.07
3444;BME280;1736;52.068;6.968;2023-04-25T08:20:10;100766.94;;;9.53;65.52
3444;BME280;1736;52.068;6.968;2023-04-25T08:22:36;100773.06;;;9.42;65.28
3444;BME280;1736;52.068;6.968;2023-04-25T08:25:04;100779.69;;;9.37;64.31
3444;BME280;1736;52.068;6.968;2023-04-25T08:27:30;100776.56;;;9.54;66.05
3444;BME280;1736;52.068;6.968;2023-04-25T08:29:57;100773.06;;;9.64;64.90
3444;BME280;1736;52.068;6.968;2023-04-25T08:32:25;100781.50;;;9.58;65.21
3444;BME280;1736;52.068;6.968;2023-04-25T08:34:51;100793.06;;;9.46;64.35
3444;BME280;1736;52.068;6.968;2023-04-25T08:37:19;100783.16;;;9.26;62.03
3444;BME280;1736;52.068;6.968;2023-04-25T08:39:45;100792.81;;;9.38;62.10
3444;BME280;1736;52.068;6.968;2023-04-25T08:42:14;100792.06;;;9.36;61.82
3444;BME280;1736;52.068;6.968;2023-04-25T08:44:41;100793.06;;;9.46;61.80
3444;BME280;1736;52.068;6.968;2023-04-25T08:47:08;100793.78;;;9.59;59.34
3444;BME280;1736;52.068;6.968;2023-04-25T08:49:36;100795.72;;;9.68;60.58
3444;BME280;1736;52.068;6.968;2023-04-25T08:52:04;100806.78;;;9.73;62.23
3444;BME280;1736;52.068;6.968;2023-04-25T08:54:32;100810.59;;;9.36;63.01
3444;BME280;1736;52.068;6.968;2023-04-25T08:57:00;100807.50;;;9.42;62.23
3444;BME280;1736;52.068;6.968;2023-04-25T08:59:29;100809.44;;;9.62;63.77
3444;BME280;1736;52.068;6.968;2023-04-25T09:01:56;100817.88;;;9.56;62.89
3444;BME280;1736;52.068;6.968;2023-04-25T09:04:23;100823.03;;;9.58;60.02
3444;BME280;1736;52.068;6.968;2023-04-25T09:06:51;100814.38;;;10.00;59.64
3444;BME280;1736;52.068;6.968;2023-04-25T09:09:17;100823.41;;;9.97;60.84
3444;BME280;1736;52.068;6.968;2023-04-25T09:11:44;100833.31;;;9.95;58.35
3444;BME280;1736;52.068;6.968;2023-04-25T09:14:12;100825.09;;;9.76;51.46
3444;BME280;1736;52.068;6.968;2023-04-25T09:17:00;100830.06;;;9.81;53.72
3444;BME280;1736;52.068;6.968;2023-04-25T09:19:29;100825.81;;;9.89;56.13
3444;BME280;1736;52.068;6.968;2023-04-25T09:21:58;100832.97;;;10.11;56.24
3444;BME280;1736;52.068;6.968;2023-04-25T09:24:36;100832.69;;;10.36;56.28
3444;BME280;1736;52.068;6.968;2023-04-25T09:27:04;100844.41;;;10.22;51.92
3444;BME280;1736;52.068;6.968;2023-04-25T09:29:31;100835.22;;;10.37;50.70
3444;BME280;1736;52.068;6.968;2023-04-25T09:32:12;100841.00;;;10.53;50.84
3444;BME280;1736;52.068;6.968;2023-04-25T09:34:39;100837.88;;;10.48;49.79
3444;BME280;1736;52.068;6.968;2023-04-25T09:37:08;100851.09;;;10.59;49.17
3444;BME280;1736;52.068;6.968;2023-04-25T09:39:36;100862.50;;;10.39;50.46
3444;BME280;1736;52.068;6.968;2023-04-25T09:42:03;100864.91;;;10.31;49.13
3444;BME280;1736;52.068;6.968;2023-04-25T09:44:30;100860.56;;;10.30;49.97
3444;BME280;1736;52.068;6.968;2023-04-25T09:46:56;100868.50;;;10.30;51.90
3444;BME280;1736;52.068;6.968;2023-04-25T09:49:25;100862.22;;;10.53;51.61
3444;BME280;1736;52.068;6.968;2023-04-25T09:51:55;100871.63;;;10.57;54.27
3444;BME280;1736;52.068;6.968;2023-04-25T09:54:24;100867.81;;;10.28;55.07
3444;BME280;1736;52.068;6.968;2023-04-25T09:56:51;100873.09;;;10.28;59.30
3444;BME280;1736;52.068;6.968;2023-04-25T09:59:19;100872.00;;;10.31;58.25
3444;BME280;1736;52.068;6.968;2023-04-25T10:01:48;100872.81;;;9.98;57.96
3444;BME280;1736;52.068;6.968;2023-04-25T10:04:18;100879.31;;;9.94;58.05
3444;BME280;1736;52.068;6.968;2023-04-25T10:06:45;100874.25;;;9.80;57.31
3444;BME280;1736;52.068;6.968;2023-04-25T10:09:14;100882.69;;;9.85;57.77
3444;BME280;1736;52.068;6.968;2023-04-25T10:11:44;100880.94;;;10.08;58.70
3444;BME280;1736;52.068;6.968;2023-04-25T10:14:13;100883.69;;;10.06;56.56
3444;BME280;1736;52.068;6.968;2023-04-25T10:16:41;100888.88;;;10.08;57.63
3444;BME280;1736;52.068;6.968;2023-04-25T10:19:09;100887.34;;;10.16;57.62
3444;BME280;1736;52.068;6.968;2023-04-25T10:21:42;100893.34;;;10.40;53.01
3444;BME280;1736;52.068;6.968;2023-04-25T10:24:11;100891.84;;;10.70;54.41
3444;BME280;1736;52.068;6.968;2023-04-25T10:26:38;100899.09;;;11.42;54.55
3444;BME280;1736;52.068;6.968;2023-04-25T10:29:06;100889.59;;;11.80;53.41
3444;BME280;1736;52.068;6.968;2023-04-25T10:31:33;100899.53;;;11.47;50.79
3444;BME280;1736;52.068;6.968;2023-04-25T10:34:00;100901.72;;;11.21;51.40
3444;BME280;1736;52.068;6.968;2023-04-25T10:36:31;100898.31;;;11.51;50.92
3444;BME280;1736;52.068;6.968;2023-04-25T10:39:03;100894.47;;;11.44;50.39
3444;BME280;1736;52.068;6.968;2023-04-25T10:41:47;100898.16;;;11.32;53.44
3444;BME280;1736;52.068;6.968;2023-04-25T10:44:15;100918.31;;;11.03;55.63
3444;BME280;1736;52.068;6.968;2023-04-25T10:46:45;100920.72;;;10.19;60.99
3444;BME280;1736;52.068;6.968;2023-04-25T10:49:29;100932.56;;;8.39;71.86
3444;BME280;1736;52.068;6.968;2023-04-25T10:52:17;100926.13;;;7.68;78.86
3444;BME280;1736;52.068;6.968;2023-04-25T10:54:47;100931.09;;;7.21;81.27
3444;BME280;1736;52.068;6.968;2023-04-25T10:57:31;100931.50;;;7.15;83.87
3444;BME280;1736;52.068;6.968;2023-04-25T11:00:02;100932.56;;;7.13;84.35
3444;BME280;1736;52.068;6.968;2023-04-25T11:02:31;100930.03;;;7.24;87.14
3444;BME280;1736;52.068;6.968;2023-04-25T11:04:58;100943.00;;;7.14;87.29
3444;BME280;1736;52.068;6.968;2023-04-25T11:07:31;100935.44;;;7.22;90.61
3444;BME280;1736;52.068;6.968;2023-04-25T11:10:01;100930.13;;;7.49;93.24
3444;BME280;1736;52.068;6.968;2023-04-25T11:12:29;100934.69;;;7.59;93.88
3444;BME280;1736;52.068;6.968;2023-04-25T11:15:04;100932.03;;;7.59;91.80
3444;BME280;1736;52.068;6.968;2023-04-25T11:17:31;100937.53;;;7.81;93.26
3444;BME280;1736;52.068;6.968;2023-04-25T11:19:58;100939.03;;;7.98;89.53
3444;BME280;1736;52.068;6.968;2023-04-25T11:22:26;100927.63;;;8.35;92.16
3444;BME280;1736;52.068;6.968;2023-04-25T11:24:55;100924.03;;;8.72;88.78
3444;BME280;1736;52.068;6.968;2023-04-25T11:27:21;100920.97;;;9.01;85.32
3444;BME280;1736;52.068;6.968;2023-04-25T11:29:50;100922.44;;;9.05;84.95
3444;BME280;1736;52.068;6.968;2023-04-25T11:32:18;100922.09;;;9.10;81.74
3444;BME280;1736;52.068;6.968;2023-04-25T11:34:46;100925.66;;;9.21;80.23
3444;BME280;1736;52.068;6.968;2023-04-25T11:37:13;100926.25;;;9.25;79.96
3444;BME280;1736;52.068;6.968;2023-04-25T11:39:43;100918.09;;;9.39;83.19
3444;BME280;1736;52.068;6.968;2023-04-25T11:42:11;100914.00;;;9.35;76.97
3444;BME280;1736;52.068;6.968;2023-04-25T11:44:38;100920.19;;;9.12;73.40
3444;BME280;1736;52.068;6.968;2023-04-25T11:47:04;100921.25;;;9.09;69.98
3444;BME280;1736;52.068;6.968;2023-04-25T11:49:32;100918.91;;;9.28;73.06
3444;BME280;1736;52.068;6.968;2023-04-25T11:52:00;100924.97;;;9.41;74.10
3444;BME280;1736;52.068;6.968;2023-04-25T11:54:26;100918.88;;;9.86;74.17
3444;BME280;1736;52.068;6.968;2023-04-25T11:56:53;100926.88;;;10.08;69.58
3444;BME280;1736;52.068;6.968;2023-04-25T11:59:23;100928.66;;;10.08;70.48
3444;BME280;1736;52.068;6.968;2023-04-25T12:01:50;100920.81;;;10.06;68.96
3444;BME280;1736;52.068;6.968;2023-04-25T12:04:18;100921.16;;;10.02;64.76
3444;BME280;1736;52.068;6.968;2023-04-25T12:06:47;100929.16;;;10.24;64.88
3444;BME280;1736;52.068;6.968;2023-04-25T12:09:16;100921.34;;;10.11;55.34
3444;BME280;1736;52.068;6.968;2023-04-25T12:11:44;100924.22;;;10.08;52.88
3444;BME280;1736;52.068;6.968;2023-04-25T12:14:12;100928.25;;;10.01;51.93
3444;BME280;1736;52.068;6.968;2023-04-25T12:16:42;100930.09;;;10.12;51.44
3444;BME280;1736;52.068;6.968;2023-04-25T12:19:08;100938.69;;;10.15;53.80
3444;BME280;1736;52.068;6.968;2023-04-25T12:21:35;100936.75;;;10.28;54.11
3444;BME280;1736;52.068;6.968;2023-04-25T12:24:15;100936.66;;;10.30;53.01
3444;BME280;1736;52.068;6.968;2023-04-25T12:26:52;100929.16;;;10.46;57.20
3444;BME280;1736;52.068;6.968;2023-04-25T12:29:20;100933.97;;;10.52;53.13
3444;BME280;1736;52.068;6.968;2023-04-25T12:31:48;100930.97;;;10.45;54.91
3444;BME280;1736;52.068;6.968;2023-04-25T12:34:14;100934.44;;;10.68;51.72
3444;BME280;1736;52.068;6.968;2023-04-25T12:36:41;100929.94;;;10.91;52.54
3444;BME280;1736;52.068;6.968;2023-04-25T12:39:08;100936.38;;;11.20;51.68
3444;BME280;1736;52.068;6.968;2023-04-25T12:41:36;100925.56;;;11.64;54.90
3444;BME280;1736;52.068;6.968;2023-04-25T12:44:03;100925.41;;;11.76;53.99
3444;BME280;1736;52.068;6.968;2023-04-25T12:46:30;100937.88;;;11.65;51.36
3444;BME280;1736;52.068;6.968;2023-04-25T12:48:56;100945.41;;;11.28;52.90
3444;BME280;1736;52.068;6.968;2023-04-25T12:51:23;100938.72;;;9.92;63.06
3444;BME280;1736;52.068;6.968;2023-04-25T12:53:50;100944.16;;;9.45;66.55
3444;BME280;1736;52.068;6.968;2023-04-25T12:56:17;100947.06;;;9.29;66.69
3444;BME280;1736;52.068;6.968;2023-04-25T12:58:45;100945.75;;;9.24;65.54
3444;BME280;1736;52.068;6.968;2023-04-25T13:01:13;100951.47;;;9.41;63.46
3444;BME280;1736;52.068;6.968;2023-04-25T13:03:40;100931.06;;;9.65;64.58
3444;BME280;1736;52.068;6.968;2023-04-25T13:06:07;100972.06;;;9.14;63.77
3444;BME280;1736;52.068;6.968;2023-04-25T13:08:33;100979.09;;;8.42;68.28
3444;BME280;1736;52.068;6.968;2023-04-25T13:11:02;100976.03;;;8.10;69.18
3444;BME280;1736;52.068;6.968;2023-04-25T13:13:28;100981.75;;;8.04;69.89
3444;BME280;1736;52.068;6.968;2023-04-25T13:15:56;100971.94;;;8.31;67.29
3444;BME280;1736;52.068;6.968;2023-04-25T13:18:23;100980.72;;;8.44;66.95